Airfield :
LOGIN :

Register | Disclaimer

   EN    FR    IT 

 










Legend :    VFR   Marginal VFR   IFR   Intensive IFR   Very Intensive IFR
Visi :
Ceiling :
>= 8 km
>= 3000ft
5 to 8 km
1000 to 3000 ft
1500m to 5 km
500 to 1000 ft
800 to 1500m
200 to 500 ft
< 800m
< 200 ft
Symbols :   Thunderstorms  Fog  Heavy snow  Heavy precipitations  Wind > 20 kt
SIGMETs :     Misc.  Thunderstorms  Icing  Turbulence  Mountain Waves  Volcanic Ashes






- Airport Elevation : 1046 ft
- IATA code : NUE


EDDN - Nuremberg

CURRENT METAR :
  • 281320Z 26018KT 230V290 9999 -SHRA FEW007 SCT015CB BKN030 03/00 Q1000 TEMPO 26025G35KT

EXPIRED METARs :
  • 281250Z 26026G42KT 5000 -SHRA FEW007 BKN015CB BKN035 03/00 Q0999 RESHGS NOSIG
  • 281220Z 23020G30KT 9999 FEW020CB BKN042 06/01 Q0998 TEMPO 26035G50KT 3000 TSGS
  • 281150Z 23015KT 200V270 9999 SCT027 06/02 Q0998 NOSIG
  • 281120Z 24013KT 9999 FEW018 04/01 Q0998 NOSIG
  • 281050Z 26017KT 9999 -SHRAGS FEW015CB SCT043 04/01 Q0998 NOSIG

TAF TAF EDDN
Valid from the 28 at 12:00 until the 29 at 12:00 UTC


281100Z 2812/2912 25015G30KT 9999 SCT030
TEMPO 2812/2818 25025G35KT 4000 SHRAGS BKN020CB
PROB30
TEMPO 2813/2817 25030G45KT 2000 TSGS
BECMG 2820/2822 25010KT
PROB40
TEMPO 2900/2906 3000 -SHSN BKN020TCU
TEMPO 2910/2912 25015G25KT



MET'MAP, your aeronautical weather chart ! - Copyright ORBIFLY December 2007 - Disclaimer

ORBIFLY MET'MAP TEAM :

Programming & Development : Alexandra Zaïnal
Concept & original design : Baudouin d'Aumeries
Assistance for programming : Marc-Olivier Méhu
Technical & hardware support : Manuel Goepfert

Contact : metmap@orbifly.com




SOURCES & CREDITS :

   NOAA